Wetterdaten: Woche 13.11.17 - 19.11.17 (KW46)
Datum Zeit Temp. A. Feuchte A. Luftdruck Regen Wind Richtung Taupunkt Windchill Windben
13.11.2017 00:00 7,6 C 69 % 998,3 hPa 0,0 l/m 19,1 km/h N 2,3 C 0,6 C 49,0 km/h
13.11.2017 01:00 6,5 C 69 % 998,8 hPa 0,0 l/m 21,1 km/h N 1,2 C -1,6 C 53,1 km/h
13.11.2017 02:00 6,3 C 70 % 1000,6 hPa 0,0 l/m 18,0 km/h N 1,1 C -0,7 C 46,7 km/h
13.11.2017 03:00 5,9 C 70 % 1000,9 hPa 0,0 l/m 17,3 km/h N 0,9 C -0,8 C 38,6 km/h
13.11.2017 04:00 5,6 C 73 % 1002,6 hPa 0,0 l/m 12,1 km/h N 1,0 C 1,4 C 31,0 km/h
13.11.2017 05:00 5,2 C 76 % 1003,3 hPa 0,0 l/m 11,5 km/h N 1,3 C 1,3 C 28,2 km/h
13.11.2017 06:00 4,9 C 76 % 1004,2 hPa 0,0 l/m 12,0 km/h N 1,0 C 0,6 C 30,6 km/h
13.11.2017 07:00 4,9 C 74 % 1004,9 hPa 0,0 l/m 13,7 km/h N 0,5 C -0,4 C 30,6 km/h
13.11.2017 08:00 5,0 C 73 % 1005,7 hPa 0,0 l/m 12,4 km/h N 0,5 C 0,6 C 31,4 km/h
13.11.2017 09:00 5,2 C 72 % 1006,3 hPa 0,0 l/m 14,2 km/h N 0,5 C -0,2 C 32,6 km/h
13.11.2017 10:00 5,4 C 71 % 1007,4 hPa 0,0 l/m 12,2 km/h N 0,6 C 1,2 C 32,6 km/h
13.11.2017 11:00 5,5 C 71 % 1008,0 hPa 0,0 l/m 13,4 km/h N 0,6 C 0,5 C 31,8 km/h
13.11.2017 12:00 5,7 C 71 % 1008,4 hPa 0,0 l/m 13,7 km/h N 0,8 C 0,6 C 35,0 km/h
13.11.2017 13:00 5,6 C 70 % 1009,2 hPa 0,0 l/m 13,1 km/h N 0,6 C 0,9 C 31,8 km/h
13.11.2017 14:00 5,6 C 70 % 1010,0 hPa 0,0 l/m 11,3 km/h N 0,5 C 1,9 C 28,6 km/h
13.11.2017 15:00 5,6 C 70 % 1010,8 hPa 0,0 l/m 11,6 km/h N 0,5 C 1,7 C 28,2 km/h
13.11.2017 16:00 5,4 C 70 % 1012,1 hPa 0,0 l/m 10,5 km/h N 0,4 C 2,2 C 25,8 km/h
13.11.2017 17:00 5,3 C 69 % 1012,7 hPa 0,0 l/m 11,5 km/h N 0,0 C 1,4 C 28,2 km/h
13.11.2017 18:00 5,2 C 69 % 1013,8 hPa 0,0 l/m 10,6 km/h N -0,0 C 1,9 C 26,5 km/h
13.11.2017 19:00 4,9 C 69 % 1014,4 hPa 0,0 l/m 10,2 km/h N -0,3 C 1,9 C 27,4 km/h
13.11.2017 20:00 4,8 C 72 % 1015,4 hPa 0,0 l/m 9,2 km/h N 0,1 C 2,4 C 21,7 km/h
13.11.2017 21:00 4,6 C 75 % 1015,8 hPa 0,0 l/m 10,2 km/h N 0,5 C 1,5 C 23,7 km/h
13.11.2017 22:00 4,4 C 76 % 1016,4 hPa 0,0 l/m 10,8 km/h N 0,6 C 1,0 C 25,0 km/h
13.11.2017 23:00 4,4 C 77 % 1017,3 hPa 0,0 l/m 8,5 km/h N 0,6 C 2,6 C 24,5 km/h
14.11.2017 00:00 4,3 C 77 % 1017,8 hPa 0,0 l/m 9,4 km/h N 0,6 C 1,8 C 24,5 km/h
14.11.2017 01:00 4,3 C 75 % 1018,4 hPa 0,0 l/m 7,6 km/h N 0,3 C 3,1 C 19,7 km/h
14.11.2017 02:00 4,7 C 72 % 1019,6 hPa 0,0 l/m 9,5 km/h N 0,1 C 2,2 C 25,4 km/h
14.11.2017 03:00 4,6 C 71 % 1019,8 hPa 0,0 l/m 9,3 km/h N -0,2 C 2,2 C 24,9 km/h
14.11.2017 04:00 4,7 C 69 % 1020,5 hPa 0,0 l/m 9,9 km/h N -0,5 C 1,9 C 25,3 km/h
14.11.2017 05:00 4,6 C 68 % 1021,1 hPa 0,0 l/m 7,1 km/h N -0,8 C 3,9 C 18,9 km/h
14.11.2017 06:00 4,6 C 68 % 1022,0 hPa 0,0 l/m 6,0 km/h N -0,7 C 4,5 C 15,7 km/h
14.11.2017 07:00 4,5 C 71 % 1022,9 hPa 0,0 l/m 7,4 km/h N -0,4 C 3,6 C 18,5 km/h
14.11.2017 08:00 4,5 C 72 % 1023,8 hPa 0,0 l/m 6,6 km/h N -0,1 C 4,0 C 16,9 km/h
14.11.2017 09:00 5,2 C 70 % 1024,1 hPa 0,0 l/m 8,3 km/h N 0,2 C 3,7 C 20,9 km/h
14.11.2017 10:00 6,1 C 66 % 1024,4 hPa 0,0 l/m 10,7 km/h N 0,3 C 2,9 C 24,6 km/h
14.11.2017 11:00 6,2 C 62 % 1024,3 hPa 0,0 l/m 11,6 km/h N -0,6 C 2,4 C 27,8 km/h
14.11.2017 12:00 6,9 C 57 % 1023,9 hPa 0,0 l/m 13,5 km/h N -1,2 C 2,1 C 28,6 km/h
14.11.2017 13:00 6,7 C 59 % 1023,9 hPa 0,0 l/m 10,0 km/h N -0,8 C 4,0 C 22,5 km/h
14.11.2017 14:00 7,2 C 58 % 1023,8 hPa 0,0 l/m 10,1 km/h N -0,5 C 4,4 C 25,8 km/h
14.11.2017 15:00 7,1 C 60 % 1024,1 hPa 0,0 l/m 8,7 km/h N -0,1 C 5,3 C 20,1 km/h
14.11.2017 16:00 6,2 C 62 % 1024,8 hPa 0,0 l/m 5,7 km/h N -0,7 C 6,1 C 18,1 km/h
14.11.2017 17:00 5,4 C 63 % 1025,5 hPa 0,0 l/m 4,4 km/h N -1,0 C 5,4 C 12,9 km/h
14.11.2017 18:00 4,6 C 66 % 1026,3 hPa 0,0 l/m 1,2 km/h N -1,2 C 4,6 C 7,7 km/h
14.11.2017 19:00 3,5 C 72 % 1026,4 hPa 0,0 l/m 1,9 km/h N -1,1 C 3,5 C 6,4 km/h
14.11.2017 20:00 3,3 C 75 % 1026,6 hPa 0,0 l/m 2,6 km/h N -0,8 C 3,3 C 8,9 km/h
14.11.2017 21:00 3,2 C 74 % 1026,6 hPa 0,0 l/m 0,9 km/h N -1,0 C 3,2 C 5,6 km/h
14.11.2017 22:00 2,5 C 74 % 1026,8 hPa 0,0 l/m 0,9 km/h N -1,6 C 2,5 C 5,6 km/h
14.11.2017 23:00 2,5 C 76 % 1026,9 hPa 0,0 l/m 3,1 km/h N -1,3 C 2,5 C 7,2 km/h
15.11.2017 00:00 2,2 C 79 % 1026,8 hPa 0,0 l/m 5,7 km/h N -1,1 C 2,1 C 11,7 km/h
15.11.2017 01:00 1,8 C 80 % 1026,9 hPa 0,0 l/m 4,3 km/h N -1,3 C 1,8 C 15,3 km/h
15.11.2017 02:00 1,4 C 80 % 1026,9 hPa 0,0 l/m 3,1 km/h N -1,7 C 1,4 C 10,5 km/h
15.11.2017 03:00 1,1 C 81 % 1027,0 hPa 0,0 l/m 4,0 km/h N -1,9 C 1,1 C 12,5 km/h
15.11.2017 04:00 1,0 C 81 % 1027,0 hPa 0,0 l/m 3,3 km/h N -1,9 C 1,0 C 10,9 km/h
15.11.2017 05:00 0,9 C 80 % 1027,2 hPa 0,0 l/m 1,6 km/h N -2,2 C 0,9 C 7,3 km/h
15.11.2017 06:00 0,3 C 81 % 1027,5 hPa 0,0 l/m 0,1 km/h N -2,6 C 0,3 C 3,6 km/h
15.11.2017 07:00 0,1 C 82 % 1028,0 hPa 0,0 l/m 0,3 km/h N -2,6 C 0,1 C 4,0 km/h
15.11.2017 08:00 0,9 C 82 % 1028,2 hPa 0,0 l/m 1,0 km/h N -1,8 C 0,9 C 6,4 km/h
15.11.2017 09:00 3,2 C 79 % 1028,5 hPa 0,0 l/m 1,1 km/h N -0,2 C 3,2 C 7,2 km/h
15.11.2017 10:00 4,9 C 72 % 1028,5 hPa 0,0 l/m 5,4 km/h N 0,2 C 4,7 C 13,7 km/h
15.11.2017 11:00 5,7 C 69 % 1028,1 hPa 0,0 l/m 5,8 km/h N 0,5 C 5,7 C 14,9 km/h
15.11.2017 12:00 6,8 C 65 % 1027,3 hPa 0,0 l/m 4,1 km/h N 0,8 C 6,8 C 13,7 km/h
15.11.2017 13:00 7,6 C 63 % 1026,9 hPa 0,0 l/m 1,5 km/h N 1,0 C 7,6 C 10,0 km/h
15.11.2017 14:00 7,9 C 62 % 1026,7 hPa 0,0 l/m 1,8 km/h N 1,0 C 7,9 C 10,1 km/h
15.11.2017 15:00 7,7 C 63 % 1026,6 hPa 0,0 l/m 0,3 km/h N 1,0 C 7,7 C 3,6 km/h
15.11.2017 16:00 6,1 C 65 % 1026,7 hPa 0,0 l/m 0,0 km/h N 0,0 C 6,1 C 0,4 km/h
15.11.2017 17:00 3,6 C 72 % 1026,8 hPa 0,0 l/m 0,0 km/h N -1,0 C 3,6 C 0,0 km/h
15.11.2017 18:00 2,2 C 77 % 1027,2 hPa 0,0 l/m 0,0 km/h N -1,4 C 2,2 C 0,0 km/h
15.11.2017 19:00 0,8 C 79 % 1027,7 hPa 0,0 l/m 0,0 km/h N -2,5 C 0,8 C 0,0 km/h
15.11.2017 20:00 -0,3 C 81 % 1028,0 hPa 0,0 l/m 0,0 km/h N -3,2 C -0,3 C 0,0 km/h
15.11.2017 21:00 -0,9 C 83 % 1027,8 hPa 0,0 l/m 0,0 km/h N -3,4 C -0,9 C 0,4 km/h
15.11.2017 22:00 -1,3 C 83 % 1027,7 hPa 0,0 l/m 0,0 km/h N -3,8 C -1,3 C 0,4 km/h
15.11.2017 23:00 -0,9 C 83 % 1027,6 hPa 0,0 l/m 0,1 km/h N -3,5 C -0,9 C 0,8 km/h
16.11.2017 00:00 -1,6 C 84 % 1027,1 hPa 0,0 l/m 0,0 km/h N -4,0 C -1,6 C 0,0 km/h
16.11.2017 01:00 -1,8 C 84 % 1027,0 hPa 0,0 l/m 0,0 km/h N -4,2 C -1,8 C 0,4 km/h
16.11.2017 02:00 -1,9 C 84 % 1026,9 hPa 0,0 l/m 0,0 km/h N -4,2 C -1,9 C 0,4 km/h
16.11.2017 03:00 -1,2 C 83 % 1026,6 hPa 0,0 l/m 0,0 km/h N -3,7 C -1,2 C 0,0 km/h
16.11.2017 04:00 -0,8 C 83 % 1026,9 hPa 0,0 l/m 0,0 km/h N -3,3 C -0,8 C 0,0 km/h
16.11.2017 05:00 -0,5 C 84 % 1026,7 hPa 0,0 l/m 0,0 km/h N -2,9 C -0,5 C 0,0 km/h
16.11.2017 06:00 -0,0 C 84 % 1026,8 hPa 0,0 l/m 0,0 km/h N -2,5 C -0,0 C 0,0 km/h
16.11.2017 07:00 0,6 C 84 % 1027,3 hPa 0,0 l/m 0,0 km/h N -1,8 C 0,6 C 0,0 km/h
16.11.2017 08:00 0,9 C 84 % 1027,4 hPa 0,0 l/m 0,0 km/h N -1,4 C 0,9 C 0,0 km/h
16.11.2017 09:00 1,3 C 84 % 1027,1 hPa 0,0 l/m 0,0 km/h N -1,1 C 1,3 C 0,8 km/h
16.11.2017 10:00 2,5 C 84 % 1027,1 hPa 0,0 l/m 0,0 km/h N 0,0 C 2,5 C 0,4 km/h
16.11.2017 11:00 3,5 C 83 % 1026,3 hPa 0,0 l/m 0,0 km/h N 0,9 C 3,5 C 2,0 km/h
16.11.2017 12:00 4,3 C 83 % 1025,6 hPa 0,0 l/m 0,0 km/h N 1,7 C 4,3 C 2,4 km/h
16.11.2017 13:00 5,1 C 82 % 1024,9 hPa 0,0 l/m 0,0 km/h N 2,4 C 5,1 C 1,2 km/h
16.11.2017 14:00 5,3 C 80 % 1024,5 hPa 0,0 l/m 0,0 km/h N 2,1 C 5,3 C 1,6 km/h
16.11.2017 15:00 4,9 C 81 % 1024,3 hPa 0,0 l/m 0,0 km/h N 1,9 C 4,9 C 0,8 km/h
16.11.2017 16:00 4,7 C 81 % 1024,2 hPa 0,0 l/m 0,0 km/h N 1,6 C 4,7 C 0,0 km/h
16.11.2017 17:00 4,5 C 80 % 1023,9 hPa 0,0 l/m 0,0 km/h N 1,3 C 4,5 C 1,6 km/h
16.11.2017 18:00 4,6 C 79 % 1023,6 hPa 0,0 l/m 0,0 km/h N 1,3 C 4,6 C 1,6 km/h
16.11.2017 19:00 4,6 C 80 % 1023,3 hPa 0,0 l/m 0,0 km/h N 1,5 C 4,6 C 3,2 km/h
16.11.2017 20:00 4,6 C 81 % 1023,3 hPa 0,0 l/m 0,1 km/h N 1,7 C 4,6 C 4,0 km/h
16.11.2017 21:00 4,8 C 81 % 1023,6 hPa 0,0 l/m 0,5 km/h N 1,7 C 4,8 C 4,4 km/h
16.11.2017 22:00 4,9 C 81 % 1023,6 hPa 0,0 l/m 0,1 km/h N 2,0 C 4,9 C 2,0 km/h
16.11.2017 23:00 4,6 C 80 % 1023,7 hPa 0,0 l/m 0,6 km/h N 1,3 C 4,6 C 5,6 km/h
17.11.2017 00:00 4,4 C 80 % 1023,6 hPa 0,0 l/m 0,8 km/h N 1,3 C 4,4 C 6,4 km/h
17.11.2017 01:00 4,3 C 81 % 1023,5 hPa 0,0 l/m 3,5 km/h N 1,4 C 4,3 C 8,0 km/h
17.11.2017 02:00 3,9 C 82 % 1023,5 hPa 0,0 l/m 3,6 km/h N 1,1 C 3,9 C 10,4 km/h
17.11.2017 03:00 3,3 C 81 % 1023,7 hPa 0,0 l/m 5,8 km/h N 0,2 C 3,2 C 14,9 km/h
17.11.2017 04:00 2,9 C 80 % 1024,3 hPa 0,0 l/m 3,0 km/h N -0,3 C 2,9 C 14,9 km/h
17.11.2017 05:00 3,0 C 77 % 1024,2 hPa 0,0 l/m 5,3 km/h N -0,6 C 2,9 C 20,5 km/h
17.11.2017 06:00 2,9 C 76 % 1024,1 hPa 0,0 l/m 6,5 km/h N -0,9 C 2,4 C 22,5 km/h
17.11.2017 07:00 3,1 C 75 % 1024,2 hPa 0,0 l/m 9,9 km/h N -0,9 C 0,1 C 25,3 km/h
17.11.2017 08:00 3,4 C 74 % 1024,6 hPa 0,0 l/m 10,1 km/h N -0,7 C 0,4 C 26,9 km/h
17.11.2017 09:00 3,9 C 73 % 1024,8 hPa 0,0 l/m 11,4 km/h N -0,5 C -0,1 C 26,1 km/h
17.11.2017 10:00 4,3 C 74 % 1024,7 hPa 0,0 l/m 7,9 km/h N 0,1 C 2,5 C 20,5 km/h
17.11.2017 11:00 5,4 C 71 % 1024,4 hPa 0,0 l/m 7,1 km/h N 0,5 C 4,6 C 19,7 km/h
17.11.2017 12:00 5,6 C 70 % 1023,9 hPa 0,0 l/m 7,8 km/h N 0,6 C 4,3 C 18,9 km/h
17.11.2017 13:00 5,7 C 70 % 1023,8 hPa 0,0 l/m 7,4 km/h N 0,7 C 4,9 C 20,5 km/h
17.11.2017 14:00 5,8 C 70 % 1023,6 hPa 0,0 l/m 9,6 km/h N 0,7 C 3,2 C 24,5 km/h
17.11.2017 15:00 5,6 C 71 % 1023,4 hPa 0,0 l/m 10,4 km/h N 0,7 C 2,5 C 26,1 km/h
17.11.2017 16:00 5,3 C 73 % 1023,4 hPa 0,0 l/m 9,3 km/h N 0,8 C 2,9 C 23,3 km/h
17.11.2017 17:00 5,3 C 74 % 1023,6 hPa 0,0 l/m 9,5 km/h N 1,0 C 2,7 C 22,5 km/h
17.11.2017 18:00 5,2 C 76 % 1023,6 hPa 0,0 l/m 9,1 km/h N 1,3 C 3,0 C 22,5 km/h
17.11.2017 19:00 4,8 C 80 % 1023,7 hPa 0,0 l/m 11,6 km/h N 1,6 C 0,9 C 26,1 km/h
17.11.2017 20:00 4,7 C 81 % 1023,7 hPa 0,0 l/m 7,1 km/h N 1,6 C 4,0 C 22,9 km/h
17.11.2017 21:00 4,6 C 81 % 1023,6 hPa 0,0 l/m 8,7 km/h N 1,7 C 2,7 C 21,7 km/h
17.11.2017 22:00 4,9 C 81 % 1023,3 hPa 0,0 l/m 6,8 km/h N 1,8 C 4,5 C 17,7 km/h
17.11.2017 23:00 4,9 C 80 % 1023,2 hPa 0,0 l/m 6,2 km/h N 1,8 C 4,8 C 16,9 km/h
18.11.2017 00:00 4,8 C 81 % 1022,8 hPa 0,0 l/m 3,8 km/h N 1,8 C 4,8 C 14,9 km/h
18.11.2017 01:00 4,8 C 81 % 1022,6 hPa 0,0 l/m 4,2 km/h N 1,8 C 4,8 C 12,5 km/h
18.11.2017 02:00 4,9 C 81 % 1022,3 hPa 0,0 l/m 6,1 km/h N 1,9 C 4,8 C 16,5 km/h
18.11.2017 03:00 4,8 C 81 % 1021,8 hPa 0,0 l/m 4,7 km/h N 1,8 C 4,7 C 12,1 km/h
18.11.2017 04:00 4,9 C 81 % 1021,5 hPa 0,0 l/m 6,6 km/h N 1,9 C 4,4 C 17,3 km/h
18.11.2017 05:00 5,0 C 81 % 1021,5 hPa 0,0 l/m 4,9 km/h N 2,0 C 5,0 C 10,9 km/h
18.11.2017 06:00 5,0 C 81 % 1021,5 hPa 0,0 l/m 4,4 km/h N 2,0 C 5,0 C 12,9 km/h
18.11.2017 07:00 4,9 C 81 % 1021,4 hPa 0,0 l/m 1,8 km/h N 1,9 C 4,9 C 8,1 km/h
18.11.2017 08:00 4,9 C 81 % 1021,4 hPa 0,0 l/m 1,5 km/h N 1,9 C 4,9 C 6,4 km/h
18.11.2017 09:00 5,9 C 79 % 1021,0 hPa 0,0 l/m 3,8 km/h N 2,6 C 5,9 C 13,3 km/h
18.11.2017 10:00 6,7 C 75 % 1020,7 hPa 0,0 l/m 5,6 km/h N 2,5 C 6,6 C 16,9 km/h
18.11.2017 11:00 7,2 C 74 % 1020,0 hPa 0,0 l/m 6,9 km/h N 2,8 C 6,9 C 17,3 km/h
18.11.2017 12:00 7,8 C 72 % 1019,2 hPa 0,0 l/m 6,1 km/h N 3,1 C 7,5 C 17,3 km/h
18.11.2017 13:00 8,1 C 71 % 1018,5 hPa 0,0 l/m 8,2 km/h N 3,1 C 6,8 C 22,1 km/h
18.11.2017 14:00 8,2 C 69 % 1017,9 hPa 0,0 l/m 8,1 km/h N 2,7 C 6,9 C 20,9 km/h
18.11.2017 15:00 6,9 C 71 % 1018,1 hPa 0,0 l/m 8,4 km/h N 2,0 C 5,1 C 22,1 km/h
18.11.2017 16:00 5,9 C 74 % 1017,7 hPa 0,0 l/m 3,6 km/h N 1,6 C 5,9 C 15,3 km/h
18.11.2017 17:00 5,7 C 77 % 1017,5 hPa 0,0 l/m 5,4 km/h N 1,9 C 5,5 C 18,9 km/h
18.11.2017 18:00 5,8 C 77 % 1017,3 hPa 0,0 l/m 8,1 km/h N 2,1 C 4,5 C 22,9 km/h
18.11.2017 19:00 5,9 C 75 % 1017,0 hPa 0,0 l/m 9,6 km/h N 1,8 C 3,4 C 31,0 km/h
18.11.2017 20:00 6,3 C 73 % 1016,7 hPa 0,0 l/m 8,9 km/h N 1,8 C 4,3 C 27,8 km/h
18.11.2017 21:00 6,2 C 72 % 1016,5 hPa 0,0 l/m 8,4 km/h N 1,4 C 4,5 C 26,1 km/h
18.11.2017 22:00 6,6 C 68 % 1016,2 hPa 0,0 l/m 8,0 km/h N 1,2 C 5,3 C 23,7 km/h
18.11.2017 23:00 6,7 C 67 % 1015,8 hPa 0,0 l/m 9,8 km/h N 1,0 C 4,1 C 29,8 km/h
19.11.2017 00:00 6,5 C 67 % 1015,2 hPa 0,0 l/m 7,7 km/h N 0,8 C 5,2 C 28,1 km/h
19.11.2017 01:00 6,0 C 64 % 1014,4 hPa 0,0 l/m 6,4 km/h N -0,3 C 5,5 C 19,3 km/h
19.11.2017 02:00 5,6 C 64 % 1014,2 hPa 0,0 l/m 7,6 km/h N -0,7 C 4,5 C 24,9 km/h
19.11.2017 03:00 5,6 C 64 % 1013,6 hPa 0,0 l/m 7,1 km/h N -0,6 C 5,0 C 24,5 km/h
19.11.2017 04:00 5,7 C 65 % 1013,3 hPa 0,0 l/m 6,1 km/h N -0,4 C 5,1 C 22,9 km/h
19.11.2017 05:00 5,5 C 66 % 1013,0 hPa 0,0 l/m 3,9 km/h N -0,4 C 5,5 C 19,7 km/h
19.11.2017 06:00 5,3 C 66 % 1012,9 hPa 0,0 l/m 1,6 km/h N -0,6 C 5,3 C 13,7 km/h
19.11.2017 07:00 5,7 C 65 % 1012,9 hPa 0,0 l/m 4,6 km/h N -0,3 C 5,7 C 20,5 km/h
19.11.2017 08:00 6,0 C 67 % 1012,6 hPa 0,0 l/m 4,2 km/h N 0,3 C 6,0 C 15,7 km/h
19.11.2017 09:00 5,9 C 71 % 1012,4 hPa 0,0 l/m 4,7 km/h N 1,0 C 5,2 C 16,5 km/h
19.11.2017 10:00 5,0 C 79 % 1012,6 hPa 0,5 l/m 4,4 km/h N 1,6 C 5,0 C 17,7 km/h
19.11.2017 11:00 4,6 C 81 % 1012,4 hPa 0,5 l/m 4,2 km/h N 1,6 C 4,6 C 16,9 km/h
19.11.2017 12:00 4,4 C 82 % 1012,4 hPa 0,8 l/m 5,4 km/h N 1,6 C 4,4 C 19,3 km/h
19.11.2017 13:00 4,3 C 82 % 1012,4 hPa 0,3 l/m 5,3 km/h N 1,5 C 4,2 C 18,9 km/h
19.11.2017 14:00 5,2 C 79 % 1012,8 hPa 0,0 l/m 8,7 km/h N 1,8 C 3,3 C 23,3 km/h
19.11.2017 15:00 4,7 C 78 % 1012,9 hPa 0,0 l/m 8,4 km/h N 1,2 C 2,9 C 23,4 km/h
19.11.2017 16:00 4,4 C 77 % 1013,0 hPa 0,0 l/m 8,0 km/h N 0,7 C 3,0 C 26,1 km/h
19.11.2017 17:00 4,5 C 73 % 1013,4 hPa 0,0 l/m 9,6 km/h N 0,2 C 1,9 C 27,3 km/h
19.11.2017 18:00 4,9 C 70 % 1013,3 hPa 0,0 l/m 11,2 km/h N -0,1 C 1,2 C 30,2 km/h
19.11.2017 19:00 5,1 C 72 % 1013,4 hPa 0,0 l/m 13,3 km/h N 0,5 C 0,1 C 35,8 km/h
19.11.2017 20:00 5,1 C 73 % 1013,5 hPa 0,0 l/m 16,0 km/h N 0,5 C -1,3 C 42,6 km/h
19.11.2017 21:00 5,4 C 70 % 1013,3 hPa 0,3 l/m 18,3 km/h N 0,4 C -1,9 C 43,5 km/h
19.11.2017 22:00 5,5 C 70 % 1013,3 hPa 0,0 l/m 19,4 km/h N 0,4 C -2,2 C 49,1 km/h
19.11.2017 23:00 5,4 C 71 % 1013,5 hPa 0,0 l/m 18,5 km/h N 0,5 C -2,0 C 48,7 km/h
Min-Datum _ 16.11.17 14.11.17 13.11.17 - 14.11.17 - 16.11.17 19.11.17 15.11.17
_ Min-Zeit 01:15 12:00 00:45 - 21:30 - 02:45 21:45 15:45
Minimum _ -2,0 C 56 % 997,8 hPa - 0,0 km/h - -4,4 C -3,2 C 0,0 km/h
Max-Datum _ 18.11.17 16.11.17 15.11.17 19.11.17 13.11.17 - 18.11.17 18.11.17 13.11.17
_ Max-Zeit 14:00 22:00 09:00 12:15 00:45 - 12:45 14:30 01:00
Maximum _ 8,4 C 85 % 1028,5 hPa 0,8 l/m 24,7 km/h
N
- 3,2 C 8,1 C 64,4 km/h
N
Durchschnitt _ 4,4 C 74 % 1020,2 hPa #2,3 l/m 6,2 km/h N 0,2 C 3,0 C 17,4 km/h